Time;durP1;ratioP1;P1;durP2;ratioP2;P2;SDS_P1;SDS_P2;PMS_P1;PMS_P2;Temp;Humidity;BMP_temperature;BMP_pressure;BME280_temperature;BME280_humidity;BME280_pressure;Samples;Min_cycle;Max_cycle;Signal;HPM_P1;HPM_P2
2022/01/13 00:04:56;;;;;;;119.15;26.55;;;;;;;2.17;nan;104089.75;10402964;28;20041;-85
2022/01/13 00:09:58;;;;;;;119.70;27.00;;;;;;;2.33;nan;104082.19;10389554;28;20143;-86
2022/01/13 00:15:20;;;;;;;114.03;24.00;;;;;;;2.33;nan;104087.25;10430844;28;20112;-88
2022/01/13 00:25:43;;;;;;;120.88;28.23;;;;;;;2.05;nan;104080.72;10416351;28;20098;-87
2022/01/13 00:30:50;;;;;;;112.40;25.55;;;;;;;2.19;nan;104083.22;10395519;28;20485;-86
2022/01/13 00:35:55;;;;;;;116.50;26.35;;;;;;;2.19;nan;104083.22;10430449;28;20040;-89
2022/01/13 00:40:57;;;;;;;125.18;26.45;;;;;;;2.18;nan;104081.41;10366001;28;20050;-86
2022/01/13 00:45:59;;;;;;;194.05;30.33;;;;;;;2.21;nan;104086.81;10428500;28;20063;-87
2022/01/13 00:51:01;;;;;;;129.68;27.38;;;;;;;2.26;nan;104092.41;10393975;28;20045;-87
2022/01/13 00:56:02;;;;;;;160.43;25.63;;;;;;;2.18;nan;104076.31;10395857;28;20073;-87
2022/01/13 01:01:06;;;;;;;192.32;26.67;;;;;;;2.18;nan;104085.56;10427088;28;20045;-86
2022/01/13 01:06:08;;;;;;;148.25;27.13;;;;;;;2.24;nan;104088.78;10411808;28;20492;-88
2022/01/13 01:11:10;;;;;;;133.35;27.42;;;;;;;2.25;nan;104089.72;10406769;28;20500;-87
2022/01/13 01:16:12;;;;;;;123.60;27.20;;;;;;;2.28;nan;104082.41;10427457;28;20040;-88
2022/01/13 01:31:38;;;;;;;167.75;28.40;;;;;;;2.19;nan;104089.91;10393228;28;20041;-87
2022/01/13 01:36:41;;;;;;;157.05;26.00;;;;;;;2.13;nan;104084.16;10393339;28;20045;-88
2022/01/13 01:41:46;;;;;;;163.02;31.42;;;;;;;2.24;nan;104082.81;10404831;28;20045;-87
2022/01/13 01:46:48;;;;;;;115.75;25.42;;;;;;;2.27;nan;104086.59;10392053;28;20041;-88
2022/01/13 01:51:53;;;;;;;107.75;25.33;;;;;;;2.24;nan;104080.25;10426848;28;20045;-86
2022/01/13 01:56:55;;;;;;;169.20;26.67;;;;;;;2.11;nan;104072.91;10421106;28;20492;-87
2022/01/13 02:01:58;;;;;;;183.52;28.63;;;;;;;2.09;nan;104080.38;10375403;28;20049;-88
2022/01/13 02:07:04;;;;;;;144.10;24.98;;;;;;;1.78;nan;104083.66;10396264;28;20122;-89
2022/01/13 02:12:10;;;;;;;212.85;28.35;;;;;;;1.92;nan;104087.72;10392258;28;20144;-90
2022/01/13 02:17:15;;;;;;;123.95;25.45;;;;;;;2.05;nan;104075.66;10393349;28;20061;-87
2022/01/13 02:22:16;;;;;;;128.23;25.92;;;;;;;2.08;nan;104072.56;10408239;28;20048;-86
2022/01/13 02:27:19;;;;;;;171.40;26.48;;;;;;;1.95;nan;104072.84;10430974;28;20412;-87
2022/01/13 02:32:21;;;;;;;198.00;26.98;;;;;;;1.84;nan;104085.22;10416012;28;20120;-86
2022/01/13 02:37:23;;;;;;;187.35;27.30;;;;;;;2.02;nan;104077.88;10432911;28;20057;-87
2022/01/13 02:42:25;;;;;;;193.23;26.27;;;;;;;1.94;nan;104086.28;10433290;28;20052;-87
2022/01/13 02:52:40;;;;;;;161.57;24.58;;;;;;;1.71;nan;104090.56;10417081;28;20104;-88
2022/01/13 02:57:42;;;;;;;197.65;25.63;;;;;;;1.89;nan;104081.59;10402303;28;20144;-89
2022/01/13 03:02:47;;;;;;;221.45;25.88;;;;;;;2.04;nan;104072.22;10409986;28;20124;-88
2022/01/13 03:07:48;;;;;;;218.43;25.00;;;;;;;1.67;nan;104070.63;10398144;28;20064;-89
2022/01/13 03:12:50;;;;;;;275.98;26.63;;;;;;;1.65;nan;104076.25;10414509;28;20041;-86
2022/01/13 03:17:52;;;;;;;240.23;26.75;;;;;;;1.66;nan;104070.47;10403118;28;20127;-89
2022/01/13 03:22:54;;;;;;;222.75;25.02;;;;;;;1.71;nan;104069.31;10398081;28;20053;-86
2022/01/13 03:28:03;;;;;;;206.88;24.95;;;;;;;1.54;nan;104059.81;10405806;28;20049;-88
2022/01/13 03:33:06;;;;;;;281.50;29.35;;;;;;;1.63;nan;104048.16;10391836;28;20762;-87
2022/01/13 03:38:08;;;;;;;294.67;24.80;;;;;;;1.66;nan;104055.22;10381291;28;20041;-86
2022/01/13 03:43:11;;;;;;;249.20;25.80;;;;;;;1.57;nan;104055.97;10413149;28;20045;-86
2022/01/13 03:48:13;;;;;;;216.85;25.65;;;;;;;1.60;nan;104054.50;10411572;28;20136;-87
2022/01/13 03:53:27;;;;;;;178.35;21.92;;;;;;;1.44;nan;104052.78;10412886;28;20136;-87
2022/01/13 03:59:07;;;;;;;159.95;21.90;;;;;;;1.33;nan;104053.16;10429727;28;20037;-87
2022/01/13 04:04:09;;;;;;;238.77;24.52;;;;;;;1.40;nan;104046.44;10412661;28;20140;-85
2022/01/13 04:09:50;;;;;;;225.85;23.20;;;;;;;1.34;nan;104044.81;10380177;28;20132;-87
2022/01/13 04:14:58;;;;;;;200.38;21.35;;;;;;;1.37;nan;104035.91;10415867;28;20029;-86
2022/01/13 04:20:00;;;;;;;239.23;23.52;;;;;;;1.41;nan;104043.16;10395544;28;20049;-86
2022/01/13 04:25:04;;;;;;;177.20;19.63;;;;;;;1.39;nan;104053.88;10378799;28;20049;-86
2022/01/13 04:35:17;;;;;;;153.18;21.13;;;;;;;1.46;nan;104053.81;10413891;28;20034;-88
2022/01/13 04:40:19;;;;;;;180.32;20.02;;;;;;;1.58;nan;104047.63;10406750;28;20449;-88
2022/01/13 04:45:22;;;;;;;184.15;25.25;;;;;;;1.50;nan;104050.91;10399040;28;20507;-87
2022/01/13 04:50:24;;;;;;;171.23;19.88;;;;;;;1.38;nan;104041.88;10375315;28;20045;-88
2022/01/13 04:55:30;;;;;;;136.68;18.80;;;;;;;1.43;nan;104045.88;10411656;28;20038;-86
2022/01/13 05:00:34;;;;;;;167.20;18.10;;;;;;;1.53;nan;104043.63;10413822;28;20045;-85
2022/01/13 05:05:36;;;;;;;124.72;18.33;;;;;;;1.35;nan;104033.94;10396287;28;20077;-85
2022/01/13 05:10:38;;;;;;;163.35;18.63;;;;;;;1.36;nan;104040.81;10418854;28;20055;-84
2022/01/13 05:15:42;;;;;;;153.40;18.38;;;;;;;1.43;nan;104046.75;10411383;28;20041;-85
2022/01/13 05:20:51;;;;;;;159.73;19.73;;;;;;;1.48;nan;104048.94;10394262;28;20049;-86
2022/01/13 05:25:52;;;;;;;189.02;22.25;;;;;;;1.54;nan;104045.44;10410881;28;20048;-86
2022/01/13 05:30:57;;;;;;;128.18;18.92;;;;;;;1.45;nan;104039.34;10425168;28;20496;-85
2022/01/13 05:36:01;;;;;;;138.23;19.00;;;;;;;1.60;nan;104035.06;10394351;28;20567;-86
2022/01/13 05:41:03;;;;;;;98.97;16.42;;;;;;;1.54;nan;104037.81;10409104;28;20064;-85
2022/01/13 05:46:05;;;;;;;150.43;18.00;;;;;;;1.55;nan;104032.00;10392715;28;20041;-86
2022/01/13 05:51:08;;;;;;;103.40;16.60;;;;;;;1.71;nan;104023.56;10393014;28;20052;-86
2022/01/13 05:56:10;;;;;;;87.00;15.50;;;;;;;1.70;nan;104027.75;10393715;28;20069;-84
2022/01/13 06:01:11;;;;;;;75.45;15.93;;;;;;;1.54;nan;104030.19;10381257;28;20049;-85
2022/01/13 06:06:13;;;;;;;74.45;14.07;;;;;;;1.69;nan;104027.56;10384999;28;20056;-84
2022/01/13 06:11:15;;;;;;;55.72;15.18;;;;;;;1.62;nan;104027.63;10401471;28;20053;-84
2022/01/13 06:16:17;;;;;;;52.63;13.25;;;;;;;1.74;nan;104023.94;10404378;28;20477;-86
2022/01/13 06:21:22;;;;;;;56.38;15.07;;;;;;;1.57;nan;104020.38;10433062;28;20037;-86
2022/01/13 06:26:24;;;;;;;68.65;14.98;;;;;;;1.66;nan;104014.53;10384489;28;20401;-84
2022/01/13 06:31:25;;;;;;;74.40;14.63;;;;;;;1.65;nan;104007.63;10399668;28;20054;-84
2022/01/13 06:36:28;;;;;;;60.75;14.10;;;;;;;1.69;nan;104022.50;10399917;28;20080;-84
2022/01/13 06:41:30;;;;;;;64.95;14.38;;;;;;;1.71;nan;104019.38;10399212;28;20045;-84
2022/01/13 06:46:32;;;;;;;69.22;13.43;;;;;;;1.66;nan;104024.69;10436527;28;20045;-84
2022/01/13 06:51:34;;;;;;;67.50;13.98;;;;;;;1.60;nan;104029.09;10436604;28;20433;-84
2022/01/13 06:56:36;;;;;;;46.88;12.27;;;;;;;1.68;nan;104028.31;10380525;28;20046;-83
2022/01/13 07:01:38;;;;;;;59.80;12.63;;;;;;;1.55;nan;104026.94;10426533;28;20049;-85
2022/01/13 07:06:42;;;;;;;64.10;12.90;;;;;;;1.55;nan;104026.94;10425310;28;20433;-84
2022/01/13 07:11:45;;;;;;;66.43;12.27;;;;;;;1.58;nan;104024.75;10382309;28;20148;-84
2022/01/13 07:16:48;;;;;;;48.92;13.80;;;;;;;1.54;nan;104032.75;10425443;28;20183;-85
2022/01/13 07:21:50;;;;;;;47.70;11.23;;;;;;;1.42;nan;104038.97;10431110;28;20100;-84
2022/01/13 07:26:52;;;;;;;58.70;12.80;;;;;;;1.64;nan;104041.41;10381455;28;20053;-84
2022/01/13 07:31:54;;;;;;;86.72;13.57;;;;;;;1.64;nan;104031.25;10414154;28;20037;-84
2022/01/13 07:36:56;;;;;;;45.65;13.07;;;;;;;1.54;nan;104030.19;10429150;28;20071;-84
2022/01/13 07:41:58;;;;;;;78.70;14.40;;;;;;;1.67;nan;104027.41;10379073;28;20175;-84
2022/01/13 07:47:04;;;;;;;82.50;15.43;;;;;;;1.64;nan;104031.25;10386314;28;20103;-84
2022/01/13 07:52:07;;;;;;;46.75;11.95;;;;;;;1.50;nan;104035.69;10394866;28;20497;-83
2022/01/13 07:57:09;;;;;;;70.68;13.18;;;;;;;1.58;nan;104040.00;10407768;28;20055;-84
2022/01/13 08:02:10;;;;;;;60.80;12.18;;;;;;;1.59;nan;104048.50;10395978;28;20103;-85
2022/01/13 08:07:12;;;;;;;60.10;13.15;;;;;;;1.66;nan;104058.63;10415834;28;20472;-85
2022/01/13 08:12:14;;;;;;;93.95;13.05;;;;;;;1.51;nan;104060.38;10412847;28;20131;-84
2022/01/13 08:19:45;;;;;;;79.15;14.52;;;;;;;1.67;nan;104057.03;10432136;28;20049;-84
2022/01/13 08:22:41;;;;;;;55.15;12.15;;;;;;;1.58;nan;104055.25;10398399;28;20052;-84
2022/01/13 08:27:43;;;;;;;70.63;13.40;;;;;;;1.78;nan;104056.56;10451333;28;20044;-84
2022/01/13 08:32:45;;;;;;;47.78;12.35;;;;;;;1.76;nan;104062.22;10425899;28;20652;-83
2022/01/13 08:37:47;;;;;;;58.38;11.88;;;;;;;1.80;nan;104064.38;10423704;28;20409;-84
2022/01/13 08:42:48;;;;;;;52.47;11.55;;;;;;;1.79;nan;104063.47;10455962;28;20041;-85
2022/01/13 08:47:50;;;;;;;50.00;11.45;;;;;;;1.88;nan;104054.34;10435106;28;20507;-85
2022/01/13 08:52:52;;;;;;;52.88;11.68;;;;;;;1.82;nan;104058.75;10448886;28;20481;-83
2022/01/13 08:57:53;;;;;;;43.90;11.80;;;;;;;1.82;nan;104058.75;10411572;28;20052;-84
2022/01/13 09:02:55;;;;;;;54.38;12.80;;;;;;;1.85;nan;104056.53;10410953;28;20083;-84
2022/01/13 09:07:57;;;;;;;47.75;12.73;;;;;;;1.87;nan;104067.78;10411689;28;20049;-85
2022/01/13 09:12:59;;;;;;;48.60;13.00;;;;;;;1.90;nan;104068.13;10376958;28;20156;-85
2022/01/13 09:18:09;;;;;;;59.75;12.65;;;;;;;2.10;nan;104072.00;10393773;28;20424;-85
2022/01/13 09:23:10;;;;;;;47.23;12.87;;;;;;;2.21;nan;104081.72;10426495;28;20049;-85
2022/01/13 09:28:12;;;;;;;59.88;13.40;;;;;;;2.20;nan;104079.91;10394016;28;20471;-84
2022/01/13 09:33:14;;;;;;;53.45;11.90;;;;;;;2.11;nan;104090.69;10418615;28;20047;-84
2022/01/13 09:38:16;;;;;;;57.80;13.38;;;;;;;2.27;nan;104090.78;10410012;28;20512;-85
2022/01/13 09:43:21;;;;;;;68.95;14.93;;;;;;;2.16;nan;104087.94;10426217;28;20059;-84
2022/01/13 09:48:27;;;;;;;52.90;13.43;;;;;;;2.20;nan;104094.28;10414093;28;20056;-84
2022/01/13 09:53:29;;;;;;;54.03;13.40;;;;;;;2.37;nan;104093.59;10421967;28;20502;-84
2022/01/13 09:58:31;;;;;;;69.97;12.98;;;;;;;2.20;nan;104089.19;10393206;28;20420;-85
2022/01/13 10:03:33;;;;;;;56.63;13.82;;;;;;;2.13;nan;104097.75;10421061;28;20052;-84
2022/01/13 10:08:50;;;;;;;65.10;12.60;;;;;;;2.30;nan;104086.94;10376269;28;20564;-85
2022/01/13 10:14:11;;;;;;;61.65;13.50;;;;;;;2.35;nan;104090.91;10392769;28;20500;-83
2022/01/13 10:19:30;;;;;;;49.30;13.23;;;;;;;2.30;nan;104086.03;10379395;28;20497;-84
2022/01/13 10:24:35;;;;;;;58.75;12.90;;;;;;;2.29;nan;104079.13;10392731;28;20048;-85
2022/01/13 10:29:43;;;;;;;82.72;14.38;;;;;;;2.43;nan;104079.00;10429646;28;20041;-86
2022/01/13 10:34:48;;;;;;;51.88;12.27;;;;;;;2.25;nan;104077.00;10434126;28;20411;-85
2022/01/13 10:39:59;;;;;;;50.22;12.13;;;;;;;2.20;nan;104068.84;10402156;28;20049;-83
2022/01/13 10:45:00;;;;;;;66.72;13.70;;;;;;;2.15;nan;104060.69;10386570;28;20046;-84
2022/01/13 10:50:06;;;;;;;48.42;12.32;;;;;;;2.40;nan;104059.94;10399334;28;20046;-81
2022/01/13 10:55:12;;;;;;;59.08;12.68;;;;;;;2.15;nan;104055.59;10403099;28;20057;-81
2022/01/13 11:00:35;;;;;;;56.65;13.10;;;;;;;2.25;nan;104046.47;10405665;28;20065;-83
2022/01/13 11:05:46;;;;;;;71.43;14.95;;;;;;;2.27;nan;104040.78;10402098;28;20053;-82
2022/01/13 11:11:16;;;;;;;58.65;13.30;;;;;;;2.30;nan;104040.22;10418852;28;20053;-81
2022/01/13 11:16:18;;;;;;;78.25;13.35;;;;;;;2.14;nan;104040.19;10399010;28;20072;-86
2022/01/13 11:21:20;;;;;;;76.38;13.05;;;;;;;2.18;nan;104030.53;10397767;28;20053;-84
2022/01/13 11:26:27;;;;;;;67.95;14.23;;;;;;;2.35;nan;104034.00;10381803;28;20539;-85
2022/01/13 11:31:31;;;;;;;81.60;13.35;;;;;;;2.27;nan;104030.63;10362832;28;20405;-83
2022/01/13 11:36:34;;;;;;;77.22;14.00;;;;;;;2.09;nan;104034.59;10398191;28;20048;-83
2022/01/13 11:42:00;;;;;;;76.72;13.43;;;;;;;2.29;nan;104034.25;10397269;28;20100;-85
2022/01/13 11:47:08;;;;;;;82.53;14.18;;;;;;;2.33;nan;104038.03;10350793;28;20049;-83
2022/01/13 11:52:29;;;;;;;62.53;13.38;;;;;;;2.22;nan;104027.56;10380693;28;20491;-83
2022/01/13 11:57:35;;;;;;;60.17;14.65;;;;;;;2.29;nan;104029.16;10396160;28;20042;-85
2022/01/13 12:02:42;;;;;;;71.18;15.98;;;;;;;2.43;nan;104024.66;10385643;28;20522;-84
2022/01/13 12:07:45;;;;;;;89.18;14.40;;;;;;;2.42;nan;104016.13;10380102;28;20435;-84
2022/01/13 12:12:47;;;;;;;81.47;14.50;;;;;;;2.35;nan;104009.47;10395790;28;20046;-84
2022/01/13 12:17:58;;;;;;;81.80;14.45;;;;;;;2.61;nan;104003.75;10379511;28;20060;-84
2022/01/13 12:23:15;;;;;;;69.47;15.38;;;;;;;2.68;nan;103990.94;10379408;28;20041;-84
2022/01/13 12:28:20;;;;;;;74.38;13.50;;;;;;;2.58;nan;103982.16;10395903;28;20069;-83
2022/01/13 12:33:31;;;;;;;63.05;13.85;;;;;;;2.68;nan;103974.78;10412081;28;20063;-84
2022/01/13 12:38:32;;;;;;;59.97;14.20;;;;;;;2.62;nan;103979.22;10412637;28;20424;-83
2022/01/13 12:45:27;;;;;;;59.03;13.00;;;;;;;2.70;nan;103971.66;10411956;28;20056;-83
2022/01/13 12:49:00;;;;;;;42.28;12.43;;;;;;;2.56;nan;103963.28;10402066;28;20403;-83
2022/01/13 12:54:04;;;;;;;52.38;13.70;;;;;;;2.65;nan;103964.25;10395892;28;20041;-83
2022/01/13 12:59:11;;;;;;;45.33;13.05;;;;;;;2.57;nan;103949.81;10411008;28;20449;-83
2022/01/13 13:04:14;;;;;;;48.97;13.65;;;;;;;2.81;nan;103949.88;10393962;28;20046;-84
2022/01/13 13:09:21;;;;;;;40.30;12.90;;;;;;;2.48;nan;103937.91;10410242;28;20042;-84
2022/01/13 13:19:57;;;;;;;51.00;12.95;;;;;;;2.42;nan;103916.88;10395063;28;20408;-84
2022/01/13 13:24:58;;;;;;;59.42;13.65;;;;;;;2.62;nan;103913.03;10394245;28;20425;-84
2022/01/13 13:30:00;;;;;;;65.63;13.88;;;;;;;2.60;nan;103906.88;10395473;28;20440;-83
2022/01/13 13:35:12;;;;;;;70.93;12.80;;;;;;;2.48;nan;103909.00;10394889;28;20508;-84
2022/01/13 13:40:24;;;;;;;73.15;15.15;;;;;;;2.71;nan;103903.84;10428440;28;20498;-84
2022/01/13 13:45:26;;;;;;;61.60;14.27;;;;;;;2.78;nan;103906.28;10406232;28;20844;-83
2022/01/13 13:50:29;;;;;;;76.13;14.52;;;;;;;2.78;nan;103908.84;10430201;28;20043;-83
2022/01/13 13:55:31;;;;;;;51.00;13.65;;;;;;;2.72;nan;103900.53;10423938;28;20499;-84
2022/01/13 14:00:33;;;;;;;72.90;13.98;;;;;;;2.78;nan;103895.19;10381023;28;20037;-85
2022/01/13 14:05:38;;;;;;;49.72;13.63;;;;;;;2.79;nan;103890.25;10412798;28;20140;-85
2022/01/13 14:10:40;;;;;;;47.35;13.43;;;;;;;2.85;nan;103903.66;10391585;28;20037;-83
2022/01/13 14:15:48;;;;;;;57.95;14.38;;;;;;;2.93;nan;103912.09;10386214;28;20551;-85
2022/01/13 14:20:49;;;;;;;46.28;12.57;;;;;;;3.01;nan;103910.38;10389159;28;20034;-84
2022/01/13 14:26:03;;;;;;;40.67;12.65;;;;;;;2.98;nan;103912.59;10398034;28;20048;-84
2022/01/13 14:31:07;;;;;;;53.45;14.30;;;;;;;2.98;nan;103918.56;10428982;28;20204;-84
2022/01/13 14:36:21;;;;;;;44.53;13.45;;;;;;;3.23;nan;103922.81;10399964;28;20056;-85
2022/01/13 14:41:32;;;;;;;53.08;14.15;;;;;;;3.01;nan;103928.19;10397544;28;20045;-85
2022/01/13 14:46:39;;;;;;;68.55;14.88;;;;;;;3.01;nan;103933.28;10415757;28;20964;-84
2022/01/13 14:51:49;;;;;;;59.40;16.02;;;;;;;3.05;nan;103920.13;10396503;28;20072;-84
2022/01/13 14:56:51;;;;;;;43.92;13.52;;;;;;;3.04;nan;103920.88;10412400;28;20041;-83
2022/01/13 15:01:52;;;;;;;44.15;14.65;;;;;;;2.92;nan;103929.75;10390171;28;20050;-84
2022/01/13 15:06:54;;;;;;;44.85;13.60;;;;;;;3.05;nan;103929.44;10410627;28;20401;-83
2022/01/13 15:11:56;;;;;;;43.50;13.38;;;;;;;3.01;nan;103920.56;10391690;28;20038;-83
2022/01/13 15:16:58;;;;;;;41.88;13.55;;;;;;;3.11;nan;103923.31;10406749;28;20052;-84
2022/01/13 15:22:00;;;;;;;44.10;13.60;;;;;;;3.28;nan;103919.09;10410558;28;20053;-84
2022/01/13 15:27:05;;;;;;;46.45;14.48;;;;;;;3.25;nan;103916.19;10395039;28;20504;-84
2022/01/13 15:32:07;;;;;;;44.88;14.20;;;;;;;3.18;nan;103909.59;10397573;28;20041;-84
2022/01/13 15:37:09;;;;;;;37.67;12.25;;;;;;;3.12;nan;103924.22;10397557;28;20042;-84
2022/01/13 15:42:10;;;;;;;54.75;14.50;;;;;;;3.10;nan;103924.03;10380811;28;20037;-83
2022/01/13 15:47:12;;;;;;;40.40;13.07;;;;;;;2.92;nan;103927.22;10422546;28;20045;-83
2022/01/13 15:52:15;;;;;;;47.83;14.30;;;;;;;3.01;nan;103925.66;10396937;28;20041;-84
2022/01/13 15:57:17;;;;;;;63.03;14.18;;;;;;;3.00;nan;103917.09;10380941;28;20055;-83
2022/01/13 16:02:19;;;;;;;43.20;13.60;;;;;;;2.91;nan;103912.69;10396283;28;20057;-84
2022/01/13 16:07:28;;;;;;;42.75;13.45;;;;;;;2.88;nan;103903.06;10412533;28;20042;-83
2022/01/13 16:12:35;;;;;;;56.50;14.80;;;;;;;2.94;nan;103905.38;10396578;28;20469;-84
2022/01/13 16:17:37;;;;;;;63.28;15.05;;;;;;;3.01;nan;103906.16;10406156;28;20413;-84
2022/01/13 16:22:44;;;;;;;65.88;14.55;;;;;;;3.07;nan;103912.63;10395643;28;20409;-85
2022/01/13 16:27:46;;;;;;;46.30;13.48;;;;;;;2.98;nan;103904.94;10395463;28;20492;-85
2022/01/13 16:32:50;;;;;;;57.05;14.52;;;;;;;3.26;nan;103901.09;10395714;28;20515;-84
2022/01/13 16:37:54;;;;;;;47.83;13.80;;;;;;;3.04;nan;103913.22;10412848;28;20045;-85
2022/01/13 16:42:59;;;;;;;68.75;14.43;;;;;;;3.14;nan;103913.47;10394143;28;20068;-85
2022/01/13 16:48:06;;;;;;;56.33;14.85;;;;;;;3.17;nan;103917.97;10411183;28;20048;-84
2022/01/13 16:53:08;;;;;;;50.13;13.80;;;;;;;3.05;nan;103927.78;10394802;28;20059;-85
2022/01/13 16:58:10;;;;;;;42.80;13.02;;;;;;;2.95;nan;103922.44;10412515;28;20080;-84
2022/01/13 17:03:11;;;;;;;46.17;13.45;;;;;;;2.94;nan;103913.00;10394250;28;20041;-85
2022/01/13 17:08:16;;;;;;;51.78;13.15;;;;;;;2.75;nan;103905.94;10419909;28;20052;-85
2022/01/13 17:13:19;;;;;;;68.72;12.80;;;;;;;2.65;nan;103908.25;10464130;28;20043;-84
2022/01/13 17:18:32;;;;;;;54.17;13.32;;;;;;;2.92;nan;103901.75;10394375;28;20150;-87
2022/01/13 17:23:34;;;;;;;61.85;13.60;;;;;;;2.84;nan;103906.03;10394521;28;20049;-85
2022/01/13 17:28:37;;;;;;;56.83;14.15;;;;;;;2.76;nan;103901.75;10394122;28;20045;-84
2022/01/13 17:33:41;;;;;;;78.40;14.20;;;;;;;2.81;nan;103900.63;10394582;28;20051;-86
2022/01/13 17:38:43;;;;;;;54.70;12.90;;;;;;;2.85;nan;103902.72;10411273;28;20056;-84
2022/01/13 17:43:45;;;;;;;80.20;14.38;;;;;;;2.78;nan;103906.28;10393783;28;20061;-85
2022/01/13 17:48:47;;;;;;;90.65;13.40;;;;;;;2.84;nan;103899.28;10393165;28;20037;-86
2022/01/13 17:53:50;;;;;;;105.63;14.07;;;;;;;2.82;nan;103893.13;10377811;28;20401;-84
2022/01/13 17:58:52;;;;;;;72.03;13.27;;;;;;;2.82;nan;103888.03;10401395;28;20049;-85
2022/01/13 18:03:54;;;;;;;80.70;12.82;;;;;;;2.76;nan;103887.41;10387724;28;20057;-84
2022/01/13 18:08:56;;;;;;;78.30;13.23;;;;;;;2.94;nan;103878.25;10400891;28;20456;-86
2022/01/13 18:13:57;;;;;;;92.35;14.73;;;;;;;2.95;nan;103871.50;10418213;28;20426;-86
2022/01/13 18:18:59;;;;;;;71.13;13.32;;;;;;;2.77;nan;103873.94;10433766;28;20075;-85
2022/01/13 18:24:01;;;;;;;69.55;13.00;;;;;;;2.79;nan;103872.44;10433644;28;20041;-85
2022/01/13 18:29:02;;;;;;;62.03;13.75;;;;;;;2.93;nan;103861.16;10418529;28;20046;-85
2022/01/13 18:34:04;;;;;;;87.70;14.35;;;;;;;2.87;nan;103857.97;10416886;28;20049;-84
2022/01/13 18:39:06;;;;;;;70.72;13.88;;;;;;;2.99;nan;103861.78;10399925;28;20049;-86
2022/01/13 18:44:09;;;;;;;104.88;14.38;;;;;;;2.91;nan;103857.53;10402080;28;20071;-84
2022/01/13 18:49:10;;;;;;;92.45;15.15;;;;;;;2.98;nan;103844.69;10415510;28;20077;-85
2022/01/13 18:54:14;;;;;;;77.75;13.93;;;;;;;2.94;nan;103851.88;10383185;28;20065;-85
2022/01/13 18:59:17;;;;;;;73.85;12.57;;;;;;;2.89;nan;103853.03;10416557;28;20511;-84
2022/01/13 19:04:20;;;;;;;83.32;12.80;;;;;;;3.06;nan;103848.06;10394470;28;20046;-81
2022/01/13 19:09:22;;;;;;;88.18;13.48;;;;;;;3.16;nan;103848.25;10400912;28;20045;-81
2022/01/13 19:14:25;;;;;;;93.57;13.65;;;;;;;2.96;nan;103856.41;10406349;28;20057;-81
2022/01/13 19:19:32;;;;;;;84.15;14.90;;;;;;;2.95;nan;103852.03;10400313;28;20056;-82
2022/01/13 19:24:37;;;;;;;46.60;12.52;;;;;;;2.97;nan;103857.28;10416488;28;20053;-81
2022/01/13 19:29:38;;;;;;;106.60;14.32;;;;;;;2.97;nan;103855.66;10399490;28;20050;-81
2022/01/13 19:34:40;;;;;;;79.65;12.70;;;;;;;3.12;nan;103856.34;10416365;28;20060;-81
2022/01/13 19:39:43;;;;;;;81.30;15.48;;;;;;;3.03;nan;103850.28;10390126;28;20091;-81
2022/01/13 19:44:45;;;;;;;73.22;14.40;;;;;;;2.99;nan;103846.50;10399355;28;20050;-81
2022/01/13 19:49:47;;;;;;;72.20;13.32;;;;;;;3.12;nan;103850.34;10399357;28;20056;-81
2022/01/13 19:54:49;;;;;;;67.18;13.95;;;;;;;3.06;nan;103839.50;10391103;28;20057;-82
2022/01/13 19:59:51;;;;;;;122.82;14.15;;;;;;;3.08;nan;103841.50;10414060;28;20053;-81
2022/01/13 20:04:53;;;;;;;122.38;15.50;;;;;;;3.08;nan;103831.31;10398264;28;20045;-81
2022/01/13 20:09:55;;;;;;;79.88;13.88;;;;;;;3.12;nan;103835.06;10397341;28;20052;-81
2022/01/13 20:14:57;;;;;;;83.45;13.88;;;;;;;3.08;nan;103831.31;10414229;28;20037;-80
2022/01/13 20:19:59;;;;;;;85.18;13.93;;;;;;;3.17;nan;103832.22;10405495;28;20055;-81
2022/01/13 20:25:01;;;;;;;76.45;13.45;;;;;;;3.14;nan;103834.47;10423899;28;20515;-81
2022/01/13 20:30:05;;;;;;;101.97;14.32;;;;;;;3.16;nan;103825.31;10423101;28;20041;-80
2022/01/13 20:35:11;;;;;;;88.32;13.95;;;;;;;3.13;nan;103814.84;10379726;28;20049;-81
2022/01/13 20:40:13;;;;;;;103.65;14.57;;;;;;;3.06;nan;103817.50;10406632;28;20051;-80
2022/01/13 20:45:21;;;;;;;;;;;;;;;3.09;93.19;103812.69;10510301;27;20462;-81
2022/01/13 20:50:23;;;;;;;81.25;13.57;;;;;;;2.99;93.79;103810.84;10492583;28;19963;-82
2022/01/13 20:55:27;;;;;;;72.63;13.82;;;;;;;3.05;93.83;103810.59;10502803;28;20064;-81
2022/01/13 21:00:28;;;;;;;88.93;13.88;;;;;;;3.01;93.48;103804.28;10464515;28;20616;-81
2022/01/13 21:05:30;;;;;;;95.47;13.82;;;;;;;2.93;93.83;103804.25;10487512;28;20048;-81
2022/01/13 21:10:33;;;;;;;118.97;15.52;;;;;;;3.02;93.48;103792.44;10504537;28;20615;-81
2022/01/13 21:15:35;;;;;;;82.00;13.00;;;;;;;2.94;93.81;103785.66;10493780;28;20144;-81
2022/01/13 21:20:37;;;;;;;100.53;14.63;;;;;;;2.99;93.40;103774.31;10528973;28;20461;-82
2022/01/13 21:25:39;;;;;;;86.88;13.65;;;;;;;2.97;93.92;103774.16;10515169;28;20051;-81
2022/01/13 21:30:41;;;;;;;108.72;13.55;;;;;;;2.96;93.61;103776.53;10514825;28;20109;-81
2022/01/13 21:35:43;;;;;;;91.55;14.65;;;;;;;2.95;93.29;103767.06;10484761;28;20068;-80
2022/01/13 21:40:44;;;;;;;78.18;14.18;;;;;;;3.06;93.05;103771.63;10500442;28;20049;-81
2022/01/13 21:45:46;;;;;;;83.65;14.52;;;;;;;2.99;93.85;103767.56;10501061;28;20044;-82
2022/01/13 21:50:49;;;;;;;72.47;13.88;;;;;;;3.00;93.31;103771.91;10502036;28;20446;-80
2022/01/13 21:55:51;;;;;;;87.18;13.77;;;;;;;2.97;93.58;103766.50;10494784;28;20060;-80
2022/01/13 22:00:52;;;;;;;66.97;13.50;;;;;;;3.09;92.79;103771.94;10470631;28;20041;-81
2022/01/13 22:05:55;;;;;;;78.95;12.98;;;;;;;2.99;93.14;103764.13;10483817;28;20507;-80
2022/01/13 22:11:08;;;;;;;54.70;12.45;;;;;;;2.93;93.01;103755.84;10457538;28;20094;-81
2022/01/13 22:16:42;;;;;;;101.70;13.27;;;;;;;2.91;93.45;103753.13;10467120;28;20095;-80
2022/01/13 22:21:44;;;;;;;69.15;13.88;;;;;;;2.84;93.28;103743.97;10461776;28;20049;-80
2022/01/13 22:26:45;;;;;;;65.65;13.60;;;;;;;2.92;93.28;103738.75;10450993;28;20132;-81
2022/01/13 22:31:51;;;;;;;50.47;12.73;;;;;;;2.92;93.16;103741.31;10428535;28;20080;-81
2022/01/13 22:37:07;;;;;;;38.30;11.95;;;;;;;2.84;93.50;103737.94;10471140;28;20500;-81
2022/01/13 22:42:09;;;;;;;46.92;12.35;;;;;;;2.84;93.59;103743.03;10447231;28;20049;-80
2022/01/13 22:47:14;;;;;;;64.47;13.95;;;;;;;2.88;93.57;103734.06;10484523;28;20052;-81
2022/01/13 22:52:16;;;;;;;51.13;13.23;;;;;;;2.83;93.53;103737.06;10466675;28;20037;-81
2022/01/13 22:57:18;;;;;;;43.83;12.75;;;;;;;2.92;92.77;103731.13;10459147;28;20049;-81
2022/01/13 23:02:20;;;;;;;56.97;14.15;;;;;;;2.83;93.16;103710.72;10476134;28;20102;-82
2022/01/13 23:07:21;;;;;;;54.17;13.05;;;;;;;3.00;93.18;103722.63;10446325;28;20048;-82
2022/01/13 23:12:23;;;;;;;50.97;13.48;;;;;;;3.02;92.95;103708.38;10460747;28;20052;-83
2022/01/13 23:22:45;;;;;;;46.00;13.65;;;;;;;2.94;92.61;103711.81;10483773;28;20072;-81
2022/01/13 23:27:50;;;;;;;49.42;15.18;;;;;;;3.03;92.54;103705.09;10460286;28;20146;-81
2022/01/13 23:32:52;;;;;;;50.83;13.82;;;;;;;2.91;93.03;103697.09;10457758;28;20091;-81
2022/01/13 23:38:01;;;;;;;54.85;14.80;;;;;;;2.91;93.07;103707.28;10463609;28;20045;-81
2022/01/13 23:43:03;;;;;;;72.55;15.73;;;;;;;2.90;92.75;103707.13;10455564;28;20094;-81
2022/01/13 23:48:07;;;;;;;65.97;15.48;;;;;;;2.93;92.84;103710.00;10472746;28;20047;-81
2022/01/13 23:53:09;;;;;;;70.45;16.58;;;;;;;2.99;92.86;103692.81;10510747;28;20037;-81
2022/01/13 23:58:13;;;;;;;73.05;17.30;;;;;;;3.06;92.76;103700.31;10468516;28;20048;-82
